createdAt,value
2018-07-26T00:00:13.091Z,1007.29
2018-07-26T00:01:13.080Z,1007.29
2018-07-26T00:02:13.072Z,1007.27
2018-07-26T00:03:13.063Z,1007.26
2018-07-26T00:04:13.056Z,1007.28
2018-07-26T00:05:13.048Z,1007.3
2018-07-26T00:06:13.039Z,1007.29
2018-07-26T00:07:13.031Z,1007.24
2018-07-26T00:08:13.025Z,1007.24
2018-07-26T00:09:13.015Z,1007.22
2018-07-26T00:10:13.006Z,1007.22
2018-07-26T00:11:13.002Z,1007.23
2018-07-26T00:12:12.993Z,1007.2
2018-07-26T00:13:12.984Z,1007.2
2018-07-26T00:14:12.975Z,1007.2
2018-07-26T00:15:12.969Z,1007.2
2018-07-26T00:16:12.958Z,1007.22
2018-07-26T00:17:12.951Z,1007.22
2018-07-26T00:18:12.941Z,1007.23
2018-07-26T00:19:12.934Z,1007.21
2018-07-26T00:20:12.927Z,1007.22
2018-07-26T00:21:12.917Z,1007.2
2018-07-26T00:22:12.910Z,1007.25
2018-07-26T00:23:12.906Z,1007.23
2018-07-26T00:24:12.895Z,1007.27
2018-07-26T00:25:12.886Z,1007.25
2018-07-26T00:26:12.877Z,1007.32
2018-07-26T00:27:12.869Z,1007.27
2018-07-26T00:28:12.862Z,1007.25
2018-07-26T00:29:12.858Z,1007.27
2018-07-26T00:30:12.850Z,1007.27
2018-07-26T00:31:12.837Z,1007.28
2018-07-26T00:32:12.830Z,1007.26
2018-07-26T00:33:12.824Z,1007.24
2018-07-26T00:34:12.820Z,1007.26
2018-07-26T00:35:12.813Z,1007.29
2018-07-26T00:36:12.798Z,1007.3
2018-07-26T00:37:12.791Z,1007.29
2018-07-26T00:38:12.782Z,1007.26
2018-07-26T00:39:12.788Z,1007.23
2018-07-26T00:40:12.766Z,1007.24
2018-07-26T00:41:12.774Z,1007.23
2018-07-26T00:42:12.746Z,1007.26
2018-07-26T00:43:12.747Z,1007.26
2018-07-26T00:44:12.730Z,1007.23
2018-07-26T00:45:12.747Z,1007.25
2018-07-26T00:46:12.712Z,1007.25
2018-07-26T00:47:12.705Z,1007.25
2018-07-26T00:48:12.696Z,1007.29
2018-07-26T00:49:12.693Z,1007.25
2018-07-26T00:50:12.683Z,1007.24
2018-07-26T00:51:12.682Z,1007.28
2018-07-26T00:52:12.664Z,1007.25
2018-07-26T00:53:12.656Z,1007.27
2018-07-26T00:54:12.647Z,1007.26
2018-07-26T00:55:12.655Z,1007.26
2018-07-26T00:56:12.631Z,1007.25
2018-07-26T00:57:12.620Z,1007.27
2018-07-26T00:58:12.613Z,1007.24
2018-07-26T00:59:12.604Z,1007.25
2018-07-26T01:00:12.596Z,1007.3
2018-07-26T01:01:12.589Z,1007.29
2018-07-26T01:02:12.583Z,1007.25
2018-07-26T01:03:12.573Z,1007.28
2018-07-26T01:04:12.561Z,1007.29
2018-07-26T01:05:12.554Z,1007.25
2018-07-26T01:06:12.545Z,1007.24
2018-07-26T01:07:12.541Z,1007.21
2018-07-26T01:08:12.531Z,1007.24
2018-07-26T01:09:12.521Z,1007.28
2018-07-26T01:10:12.515Z,1007.26
2018-07-26T01:11:12.504Z,1007.27
2018-07-26T01:12:12.494Z,1007.24
2018-07-26T01:13:12.487Z,1007.23
2018-07-26T01:14:12.480Z,1007.22
2018-07-26T01:15:12.470Z,1007.16
2018-07-26T01:16:12.462Z,1007.14
2018-07-26T01:17:12.456Z,1007.16
2018-07-26T01:18:12.449Z,1007.17
2018-07-26T01:19:12.440Z,1007.14
2018-07-26T01:20:12.430Z,1007.14
2018-07-26T01:21:12.419Z,1007.14
2018-07-26T01:22:12.410Z,1007.14
2018-07-26T01:23:12.404Z,1007.12
2018-07-26T01:24:12.396Z,1007.11
2018-07-26T01:25:12.386Z,1007.11
2018-07-26T01:26:12.378Z,1007.09
2018-07-26T01:27:12.369Z,1007.11
2018-07-26T01:28:12.362Z,1007.12
2018-07-26T01:29:12.355Z,1007.07
2018-07-26T01:30:12.344Z,1007.07
2018-07-26T01:31:12.336Z,1007.09
2018-07-26T01:32:12.335Z,1007.1
2018-07-26T01:33:12.318Z,1007.18
2018-07-26T01:34:12.310Z,1007.17
2018-07-26T01:35:12.305Z,1007.16
2018-07-26T01:36:12.295Z,1007.13
2018-07-26T01:37:12.283Z,1007.13
2018-07-26T01:38:12.279Z,1007.11
2018-07-26T01:39:12.268Z,1007.12
2018-07-26T01:40:12.258Z,1007.08
2018-07-26T01:41:12.249Z,1007.07
2018-07-26T01:42:12.244Z,1007.08
2018-07-26T01:43:12.234Z,1007.08
2018-07-26T01:44:12.226Z,1007.09
2018-07-26T01:45:12.218Z,1007.09
2018-07-26T01:46:12.208Z,1007.08
2018-07-26T01:47:12.200Z,1007.07
2018-07-26T01:48:12.195Z,1007.05
2018-07-26T01:49:12.182Z,1007.09
2018-07-26T01:50:12.174Z,1007.06
2018-07-26T01:51:12.166Z,1007.08
2018-07-26T01:52:12.159Z,1007.11
2018-07-26T01:53:12.151Z,1007.09
2018-07-26T01:54:12.141Z,1007.06
2018-07-26T01:55:12.133Z,1007.1
2018-07-26T01:56:12.124Z,1007.07
2018-07-26T01:57:12.115Z,1007.07
2018-07-26T01:58:12.106Z,1007.07
2018-07-26T01:59:12.098Z,1007.1
2018-07-26T02:00:12.097Z,1007.09
2018-07-26T02:01:12.080Z,1007.06
2018-07-26T02:02:12.072Z,1007.05
2018-07-26T02:03:12.066Z,1007.09
2018-07-26T02:04:12.057Z,1007.06
2018-07-26T02:05:12.047Z,1007.14
2018-07-26T02:06:12.041Z,1007.17
2018-07-26T02:07:12.030Z,1007.14
2018-07-26T02:08:12.021Z,1007.16
2018-07-26T02:09:12.015Z,1007.16
2018-07-26T02:10:12.003Z,1007.14
2018-07-26T02:11:11.994Z,1007.11
2018-07-26T02:12:11.986Z,1007.12
2018-07-26T02:13:12.179Z,1007.11
2018-07-26T02:14:11.973Z,1007.08
2018-07-26T02:15:11.962Z,1007.04
2018-07-26T02:16:11.952Z,1007.02
2018-07-26T02:17:11.943Z,1007.01
2018-07-26T02:18:11.932Z,1007.03
2018-07-26T02:19:11.926Z,1007.01
2018-07-26T02:20:11.923Z,1007.05
2018-07-26T02:21:11.905Z,1007.01
2018-07-26T02:22:11.900Z,1006.98
2018-07-26T02:23:11.890Z,1007.01
2018-07-26T02:24:11.891Z,1007
2018-07-26T02:25:11.873Z,1006.99
2018-07-26T02:26:11.863Z,1007.03
2018-07-26T02:27:11.856Z,1007.02
2018-07-26T02:28:11.845Z,1007.01
2018-07-26T02:29:11.837Z,1006.99
2018-07-26T02:30:11.827Z,1007
2018-07-26T02:31:11.919Z,1007.01
2018-07-26T02:32:11.812Z,1007.02
2018-07-26T02:33:11.802Z,1007.06
2018-07-26T02:34:11.792Z,1007.05
2018-07-26T02:35:11.784Z,1007.03
2018-07-26T02:36:11.777Z,1007.02
2018-07-26T02:37:11.767Z,1007.08
2018-07-26T02:38:11.769Z,1007.06
2018-07-26T02:39:11.750Z,1007.06
2018-07-26T02:40:11.740Z,1007.09
2018-07-26T02:41:11.732Z,1007.1
2018-07-26T02:42:11.720Z,1007.1
2018-07-26T02:43:11.711Z,1007.09
2018-07-26T02:44:11.705Z,1007.08
2018-07-26T02:45:11.698Z,1007.11
2018-07-26T02:46:11.688Z,1007.09
2018-07-26T02:47:11.676Z,1007.09
2018-07-26T02:48:11.689Z,1007.09
2018-07-26T02:49:11.661Z,1007.08
2018-07-26T02:50:11.648Z,1007.1
2018-07-26T02:51:11.641Z,1007.11
2018-07-26T02:52:11.637Z,1007.1
2018-07-26T02:53:11.623Z,1007.1
2018-07-26T02:54:11.613Z,1007.09
2018-07-26T02:55:11.603Z,1007.11
2018-07-26T02:56:11.597Z,1007.07
2018-07-26T02:57:11.587Z,1007.08
2018-07-26T02:58:11.578Z,1007.1
2018-07-26T02:59:11.570Z,1007.08
2018-07-26T03:00:11.560Z,1007.06
2018-07-26T03:01:11.551Z,1007.07
2018-07-26T03:02:11.541Z,1007.1
2018-07-26T03:03:11.533Z,1007.09
2018-07-26T03:04:11.524Z,1007.07
2018-07-26T03:05:11.520Z,1007.07
2018-07-26T03:06:11.506Z,1007.08
2018-07-26T03:07:11.537Z,1007.08
2018-07-26T03:08:11.488Z,1007.11
2018-07-26T03:09:11.513Z,1007.08
2018-07-26T03:10:11.475Z,1007.04
2018-07-26T03:11:11.464Z,1007.06
2018-07-26T03:12:11.453Z,1007
2018-07-26T03:13:11.448Z,1007.03
2018-07-26T03:14:11.436Z,1007.02
2018-07-26T03:15:11.424Z,1007.05
2018-07-26T03:16:11.417Z,1007.08
2018-07-26T03:17:11.405Z,1007.07
2018-07-26T03:18:11.396Z,1007.06
2018-07-26T03:19:11.391Z,1007.08
2018-07-26T03:20:11.381Z,1007.07
2018-07-26T03:21:11.369Z,1007.07
2018-07-26T03:22:11.361Z,1007.09
2018-07-26T03:23:11.361Z,1007.09
2018-07-26T03:24:11.355Z,1007.11
2018-07-26T03:25:11.342Z,1007.09
2018-07-26T03:26:11.325Z,1007.07
2018-07-26T03:27:11.315Z,1007.05
2018-07-26T03:28:11.317Z,1007.09
2018-07-26T03:29:11.297Z,1007.04
2018-07-26T03:30:11.287Z,1007.05
2018-07-26T03:31:11.279Z,1007.02
2018-07-26T03:32:11.272Z,1007.02
2018-07-26T03:33:11.260Z,1007.04
2018-07-26T03:34:11.251Z,1007.01
2018-07-26T03:35:11.242Z,1007
2018-07-26T03:36:11.232Z,1007.04
2018-07-26T03:37:11.222Z,1007.07
2018-07-26T03:38:11.215Z,1007.04
2018-07-26T03:39:11.205Z,1007.03
2018-07-26T03:40:11.194Z,1007.03
2018-07-26T03:41:11.184Z,1007.02
2018-07-26T03:42:11.176Z,1007.03
2018-07-26T03:43:11.167Z,1007.04
2018-07-26T03:44:11.160Z,1007.04
2018-07-26T03:45:11.148Z,1007.04
2018-07-26T03:46:11.138Z,1007.03
2018-07-26T03:47:11.131Z,1007.05
2018-07-26T03:48:11.122Z,1007.03
2018-07-26T03:49:11.132Z,1007
2018-07-26T03:50:11.104Z,1007.05
2018-07-26T03:51:11.103Z,1007.06
2018-07-26T03:52:11.104Z,1007.03
2018-07-26T03:53:11.075Z,1007.05
2018-07-26T03:54:11.066Z,1007.02
2018-07-26T03:55:11.058Z,1007.03
2018-07-26T03:56:11.045Z,1007.01
2018-07-26T03:57:11.038Z,1007.03
2018-07-26T03:58:11.032Z,1006.98
2018-07-26T03:59:11.017Z,1007
2018-07-26T04:00:11.009Z,1007.02
2018-07-26T04:01:11.000Z,1007.02
2018-07-26T04:02:10.994Z,1007.04
2018-07-26T04:03:10.985Z,1007.04
2018-07-26T04:04:10.972Z,1007.04
2018-07-26T04:05:10.962Z,1007.07
2018-07-26T04:06:10.957Z,1007.05
2018-07-26T04:07:10.947Z,1007.08
2018-07-26T04:08:10.935Z,1007.04
2018-07-26T04:09:10.928Z,1007.05
2018-07-26T04:10:10.916Z,1007
2018-07-26T04:11:10.907Z,1007.06
2018-07-26T04:12:10.897Z,1007.07
2018-07-26T04:13:11.091Z,1007.08
2018-07-26T04:14:10.890Z,1007.07
2018-07-26T04:15:10.872Z,1007.09
2018-07-26T04:16:10.863Z,1007.07
2018-07-26T04:17:10.850Z,1007.11
2018-07-26T04:18:10.841Z,1007.12
2018-07-26T04:19:10.835Z,1007.11
2018-07-26T04:20:10.873Z,1007.12
2018-07-26T04:21:10.814Z,1007.12
2018-07-26T04:22:10.805Z,1007.11
2018-07-26T04:23:10.799Z,1007.15
2018-07-26T04:24:10.792Z,1007.16
2018-07-26T04:25:10.778Z,1007.15
2018-07-26T04:26:10.825Z,1007.17
2018-07-26T04:27:10.758Z,1007.19
2018-07-26T04:28:10.749Z,1007.18
2018-07-26T04:29:10.743Z,1007.18
2018-07-26T04:30:10.740Z,1007.2
2018-07-26T04:31:10.726Z,1007.21
2018-07-26T04:32:10.830Z,1007.21
2018-07-26T04:33:10.705Z,1007.19
2018-07-26T04:34:10.701Z,1007.22
2018-07-26T04:35:10.686Z,1007.21
2018-07-26T04:36:10.677Z,1007.23
2018-07-26T04:37:10.667Z,1007.23
2018-07-26T04:38:10.659Z,1007.24
2018-07-26T04:39:10.648Z,1007.26
2018-07-26T04:40:10.641Z,1007.24
2018-07-26T04:41:10.631Z,1007.24
2018-07-26T04:42:10.621Z,1007.23
2018-07-26T04:43:10.612Z,1007.25
2018-07-26T04:44:10.602Z,1007.23
2018-07-26T04:45:10.594Z,1007.24
2018-07-26T04:46:10.586Z,1007.28
2018-07-26T04:47:10.575Z,1007.27
2018-07-26T04:48:10.576Z,1007.3
2018-07-26T04:49:10.558Z,1007.25
2018-07-26T04:50:10.547Z,1007.28
2018-07-26T04:51:10.538Z,1007.3
2018-07-26T04:52:10.529Z,1007.29
2018-07-26T04:53:10.520Z,1007.31
2018-07-26T04:54:10.510Z,1007.28
2018-07-26T04:55:10.504Z,1007.31
2018-07-26T04:56:10.497Z,1007.31
2018-07-26T04:57:10.485Z,1007.32
2018-07-26T04:58:10.475Z,1007.28
2018-07-26T04:59:10.469Z,1007.29
2018-07-26T05:00:10.465Z,1007.3
2018-07-26T05:01:10.451Z,1007.33
2018-07-26T05:02:10.439Z,1007.32
2018-07-26T05:03:10.429Z,1007.33
2018-07-26T05:04:10.421Z,1007.31
2018-07-26T05:05:10.414Z,1007.34
2018-07-26T05:06:10.405Z,1007.33
2018-07-26T05:07:10.393Z,1007.36
2018-07-26T05:08:10.394Z,1007.3
2018-07-26T05:09:10.385Z,1007.35
2018-07-26T05:10:10.366Z,1007.34
2018-07-26T05:11:10.363Z,1007.33
2018-07-26T05:12:10.348Z,1007.33
2018-07-26T05:13:10.339Z,1007.32
2018-07-26T05:14:10.331Z,1007.32
2018-07-26T05:15:10.321Z,1007.32
2018-07-26T05:16:10.312Z,1007.33
2018-07-26T05:17:10.305Z,1007.36
2018-07-26T05:18:10.295Z,1007.31
2018-07-26T05:19:10.377Z,1007.33
2018-07-26T05:20:10.276Z,1007.27
2018-07-26T05:21:10.270Z,1007.32
2018-07-26T05:22:10.259Z,1007.31
2018-07-26T05:23:10.250Z,1007.28
2018-07-26T05:24:10.240Z,1007.29
2018-07-26T05:25:10.232Z,1007.31
2018-07-26T05:26:10.223Z,1007.3
2018-07-26T05:27:10.214Z,1007.33
2018-07-26T05:28:10.205Z,1007.34
2018-07-26T05:29:10.197Z,1007.31
2018-07-26T05:30:10.188Z,1007.29
2018-07-26T05:31:10.182Z,1007.26
2018-07-26T05:32:10.173Z,1007.28
2018-07-26T05:33:10.163Z,1007.3
2018-07-26T05:34:10.155Z,1007.26
2018-07-26T05:35:10.144Z,1007.24
2018-07-26T05:36:10.139Z,1007.28
2018-07-26T05:37:10.131Z,1007.31
2018-07-26T05:38:10.119Z,1007.3
2018-07-26T05:39:10.112Z,1007.35
2018-07-26T05:40:10.102Z,1007.33
2018-07-26T05:41:10.095Z,1007.33
2018-07-26T05:42:10.087Z,1007.36
2018-07-26T05:43:10.101Z,1007.34
2018-07-26T05:44:10.098Z,1007.35
2018-07-26T05:45:10.059Z,1007.33
2018-07-26T05:46:10.052Z,1007.4
2018-07-26T05:47:10.045Z,1007.37
2018-07-26T05:48:10.034Z,1007.34
2018-07-26T05:49:10.027Z,1007.37
2018-07-26T05:50:10.024Z,1007.37
2018-07-26T05:51:10.016Z,1007.35
2018-07-26T05:52:10.009Z,1007.38
2018-07-26T05:53:10.026Z,1007.37
2018-07-26T05:54:09.983Z,1007.4
2018-07-26T05:55:09.980Z,1007.38
2018-07-26T05:56:09.965Z,1007.4
2018-07-26T05:57:09.960Z,1007.41
2018-07-26T05:58:09.952Z,1007.42
2018-07-26T05:59:09.947Z,1007.45
2018-07-26T06:00:09.972Z,1007.46
2018-07-26T06:01:09.929Z,1007.41
2018-07-26T06:02:09.921Z,1007.46
2018-07-26T06:03:09.918Z,1007.43
2018-07-26T06:04:09.905Z,1007.46
2018-07-26T06:05:09.896Z,1007.44
2018-07-26T06:06:09.888Z,1007.48
2018-07-26T06:07:09.879Z,1007.48
2018-07-26T06:08:09.871Z,1007.47
2018-07-26T06:09:09.862Z,1007.48
2018-07-26T06:10:09.859Z,1007.49
2018-07-26T06:11:09.847Z,1007.5
2018-07-26T06:12:09.839Z,1007.52
2018-07-26T06:13:10.035Z,1007.52
2018-07-26T06:14:09.823Z,1007.51
2018-07-26T06:15:09.814Z,1007.52
2018-07-26T06:16:09.806Z,1007.54
2018-07-26T06:17:09.863Z,1007.54
2018-07-26T06:18:09.851Z,1007.54
2018-07-26T06:19:09.785Z,1007.53
2018-07-26T06:20:09.777Z,1007.5
2018-07-26T06:21:09.770Z,1007.52
2018-07-26T06:22:09.764Z,1007.5
2018-07-26T06:23:09.754Z,1007.51
2018-07-26T06:24:09.743Z,1007.47
2018-07-26T06:25:09.737Z,1007.53
2018-07-26T06:26:09.729Z,1007.53
2018-07-26T06:27:09.722Z,1007.51
2018-07-26T06:28:09.767Z,1007.52
2018-07-26T06:29:09.705Z,1007.52
2018-07-26T06:30:09.700Z,1007.52
2018-07-26T06:31:09.690Z,1007.51
2018-07-26T06:32:09.683Z,1007.55
2018-07-26T06:33:09.679Z,1007.53
2018-07-26T06:34:09.671Z,1007.54
2018-07-26T06:35:09.660Z,1007.53
2018-07-26T06:36:09.657Z,1007.53
2018-07-26T06:37:09.649Z,1007.55
2018-07-26T06:38:09.638Z,1007.58
2018-07-26T06:39:09.632Z,1007.55
2018-07-26T06:40:09.622Z,1007.53
2018-07-26T06:41:09.615Z,1007.6
2018-07-26T06:42:09.608Z,1007.59
2018-07-26T06:43:09.600Z,1007.58
2018-07-26T06:44:09.593Z,1007.57
2018-07-26T06:45:09.586Z,1007.55
2018-07-26T06:46:09.580Z,1007.59
2018-07-26T06:47:09.677Z,1007.57
2018-07-26T06:48:09.563Z,1007.55
2018-07-26T06:49:09.558Z,1007.57
2018-07-26T06:50:09.554Z,1007.6
2018-07-26T06:51:09.541Z,1007.6
2018-07-26T06:52:09.536Z,1007.59
2018-07-26T06:53:09.568Z,1007.62
2018-07-26T06:54:09.528Z,1007.64
2018-07-26T06:55:09.518Z,1007.64
2018-07-26T06:56:09.510Z,1007.63
2018-07-26T06:57:09.500Z,1007.62
2018-07-26T06:58:09.494Z,1007.6
2018-07-26T06:59:09.487Z,1007.61
2018-07-26T07:00:09.481Z,1007.65
2018-07-26T07:01:09.476Z,1007.6
2018-07-26T07:02:09.466Z,1007.58
2018-07-26T07:03:09.461Z,1007.61
2018-07-26T07:04:09.453Z,1007.6
2018-07-26T07:05:09.445Z,1007.61
2018-07-26T07:06:09.440Z,1007.58
2018-07-26T07:07:09.434Z,1007.61
2018-07-26T07:08:09.432Z,1007.61
2018-07-26T07:09:09.420Z,1007.6
2018-07-26T07:10:09.488Z,1007.62
2018-07-26T07:11:09.408Z,1007.6
2018-07-26T07:12:09.403Z,1007.59
2018-07-26T07:13:09.393Z,1007.63
2018-07-26T07:14:09.391Z,1007.62
2018-07-26T07:15:09.381Z,1007.65
2018-07-26T07:16:09.374Z,1007.55
2018-07-26T07:17:09.368Z,1007.53
2018-07-26T07:18:09.360Z,1007.53
2018-07-26T07:19:09.359Z,1007.56
2018-07-26T07:20:09.348Z,1007.56
2018-07-26T07:21:09.343Z,1007.59
2018-07-26T07:22:09.336Z,1007.58
2018-07-26T07:23:09.327Z,1007.54
2018-07-26T07:24:09.320Z,1007.53
2018-07-26T07:25:09.317Z,1007.58
2018-07-26T07:26:09.341Z,1007.55
2018-07-26T07:27:09.304Z,1007.58
2018-07-26T07:28:09.300Z,1007.59
2018-07-26T07:29:09.290Z,1007.58
2018-07-26T07:30:09.284Z,1007.61
2018-07-26T07:31:09.279Z,1007.59
2018-07-26T07:32:09.271Z,1007.61
2018-07-26T07:33:09.267Z,1007.61
2018-07-26T07:34:09.259Z,1007.65
2018-07-26T07:35:09.251Z,1007.75
2018-07-26T07:36:09.247Z,1007.83
2018-07-26T07:37:09.240Z,1007.84
2018-07-26T07:38:09.234Z,1007.87
2018-07-26T07:39:09.232Z,1007.83
2018-07-26T07:40:09.227Z,1007.86
2018-07-26T07:41:09.220Z,1007.91
2018-07-26T07:42:09.213Z,1007.91
2018-07-26T07:43:09.210Z,1007.9
2018-07-26T07:44:09.206Z,1007.86
2018-07-26T07:45:09.202Z,1007.86
2018-07-26T07:46:09.204Z,1007.86
2018-07-26T07:47:09.261Z,1007.85
2018-07-26T07:48:09.193Z,1007.84
2018-07-26T07:49:09.189Z,1007.83
2018-07-26T07:50:09.185Z,1007.81
2018-07-26T07:51:09.188Z,1007.82
2018-07-26T07:52:09.183Z,1007.87
2018-07-26T07:53:09.182Z,1007.84
2018-07-26T07:54:09.181Z,1007.86
2018-07-26T07:55:09.178Z,1007.86
2018-07-26T07:56:09.178Z,1007.8
2018-07-26T07:57:09.175Z,1007.82
2018-07-26T07:58:09.174Z,1007.8
2018-07-26T07:59:09.180Z,1007.85
2018-07-26T08:00:09.179Z,1007.81
2018-07-26T08:01:09.177Z,1007.8
2018-07-26T08:02:09.175Z,1007.8
2018-07-26T08:03:09.179Z,1007.82
2018-07-26T08:04:09.176Z,1007.82
2018-07-26T08:05:09.201Z,1007.82
2018-07-26T08:06:09.178Z,1007.87
2018-07-26T08:07:09.181Z,1007.87
2018-07-26T08:08:09.181Z,1007.84
2018-07-26T08:09:09.182Z,1007.83
2018-07-26T08:10:09.184Z,1007.87
2018-07-26T08:11:09.233Z,1007.89
2018-07-26T08:12:09.186Z,1007.89
2018-07-26T08:13:09.390Z,1007.88
2018-07-26T08:14:09.190Z,1007.88
2018-07-26T08:15:09.194Z,1007.88
2018-07-26T08:16:09.195Z,1007.88
2018-07-26T08:17:09.201Z,1007.92
2018-07-26T08:18:09.205Z,1007.98
2018-07-26T08:19:09.204Z,1007.96
2018-07-26T08:20:09.210Z,1008.01
2018-07-26T08:21:09.220Z,1008.06
2018-07-26T08:22:09.221Z,1008.07
2018-07-26T08:23:09.219Z,1008.09
2018-07-26T08:24:09.222Z,1008.07
2018-07-26T08:25:09.226Z,1008.04
2018-07-26T08:26:09.232Z,1008.04
2018-07-26T08:27:09.233Z,1008.06
2018-07-26T08:28:09.237Z,1008.09
2018-07-26T08:29:09.241Z,1008.07
2018-07-26T08:30:09.249Z,1008.08
2018-07-26T08:31:09.254Z,1008.08
2018-07-26T08:32:09.255Z,1008.06
2018-07-26T08:33:09.259Z,1008.08
2018-07-26T08:34:09.263Z,1008.04
2018-07-26T08:35:09.278Z,1008.05
2018-07-26T08:36:09.276Z,1008.02
2018-07-26T08:37:09.277Z,1008.03
2018-07-26T08:38:09.284Z,1008.02
2018-07-26T08:39:09.286Z,1007.96
2018-07-26T08:40:09.291Z,1007.97
2018-07-26T08:41:09.337Z,1007.86
2018-07-26T08:42:09.299Z,1007.64
2018-07-26T08:43:09.306Z,1007.6
2018-07-26T08:44:09.309Z,1007.65
2018-07-26T08:45:09.314Z,1007.66
2018-07-26T08:46:09.318Z,1007.63
2018-07-26T08:47:09.324Z,1007.65
2018-07-26T08:48:09.381Z,1007.56
2018-07-26T08:49:09.332Z,1007.54
2018-07-26T08:50:09.336Z,1007.57
2018-07-26T08:51:09.343Z,1007.54
2018-07-26T08:52:09.399Z,1007.54
2018-07-26T08:53:09.345Z,1007.53
2018-07-26T08:54:09.418Z,1007.56
2018-07-26T08:55:09.349Z,1007.57
2018-07-26T08:56:09.355Z,1007.59
2018-07-26T08:57:09.354Z,1007.58
2018-07-26T08:58:09.357Z,1007.59
2018-07-26T08:59:09.359Z,1007.63
2018-07-26T09:00:09.362Z,1007.67
2018-07-26T09:01:09.367Z,1007.68
2018-07-26T09:02:09.367Z,1007.63
2018-07-26T09:03:09.364Z,1007.7
2018-07-26T09:04:09.372Z,1007.72
2018-07-26T09:05:09.364Z,1007.76
2018-07-26T09:06:09.364Z,1007.82
2018-07-26T09:07:09.367Z,1007.82
2018-07-26T09:08:09.366Z,1007.77
2018-07-26T09:09:09.380Z,1007.64
2018-07-26T09:10:09.371Z,1007.61
2018-07-26T09:11:09.375Z,1007.58
2018-07-26T09:12:09.370Z,1007.66
2018-07-26T09:13:09.375Z,1007.73
2018-07-26T09:14:09.374Z,1007.63
2018-07-26T09:15:09.373Z,1007.55
2018-07-26T09:16:09.382Z,1007.57
2018-07-26T09:17:09.399Z,1007.52
2018-07-26T09:18:09.378Z,1007.5
2018-07-26T09:19:09.375Z,1007.51
2018-07-26T09:20:09.374Z,1007.55
2018-07-26T09:21:09.376Z,1007.56
2018-07-26T09:22:09.373Z,1007.5
2018-07-26T09:23:09.374Z,1007.48
2018-07-26T09:24:09.373Z,1007.56
2018-07-26T09:25:09.374Z,1007.51
2018-07-26T09:26:09.437Z,1007.51
2018-07-26T09:27:09.373Z,1007.49
2018-07-26T09:28:09.371Z,1007.48
2018-07-26T09:29:09.378Z,1007.45
2018-07-26T09:30:09.378Z,1007.42
2018-07-26T09:31:09.373Z,1007.37
2018-07-26T09:32:09.372Z,1007.39
2018-07-26T09:33:09.387Z,1007.35
2018-07-26T09:34:09.371Z,1007.36
2018-07-26T09:35:09.371Z,1007.41
2018-07-26T09:36:09.369Z,1007.41
2018-07-26T09:37:09.374Z,1007.37
2018-07-26T09:38:09.371Z,1007.35
2018-07-26T09:39:09.371Z,1007.32
2018-07-26T09:40:09.367Z,1007.37
2018-07-26T09:41:09.427Z,1007.38
2018-07-26T09:42:09.365Z,1007.33
2018-07-26T09:43:09.364Z,1007.34
2018-07-26T09:44:09.364Z,1007.37
2018-07-26T09:45:09.363Z,1007.34
2018-07-26T09:46:09.364Z,1007.35
2018-07-26T09:47:09.361Z,1007.28
2018-07-26T09:48:09.359Z,1007.26
2018-07-26T09:49:09.360Z,1007.3
2018-07-26T09:50:09.357Z,1007.26
2018-07-26T09:51:09.355Z,1007.29
2018-07-26T09:52:09.357Z,1007.24
2018-07-26T09:53:09.354Z,1007.25
2018-07-26T09:54:09.359Z,1007.21
2018-07-26T09:55:09.353Z,1007.29
2018-07-26T09:56:09.358Z,1007.28
2018-07-26T09:57:09.353Z,1007.28
2018-07-26T09:58:09.348Z,1007.4
2018-07-26T09:59:09.347Z,1007.39
2018-07-26T10:00:09.346Z,1007.33
2018-07-26T10:01:09.347Z,1007.31
2018-07-26T10:02:09.343Z,1007.24
2018-07-26T10:03:09.342Z,1007.27
2018-07-26T10:04:09.343Z,1007.23
2018-07-26T10:05:09.342Z,1007.21
2018-07-26T10:06:09.339Z,1007.21
2018-07-26T10:07:09.339Z,1007.2
2018-07-26T10:08:09.339Z,1007.23
2018-07-26T10:09:09.335Z,1007.2
2018-07-26T10:10:09.333Z,1007.18
2018-07-26T10:11:09.333Z,1007.13
2018-07-26T10:12:09.332Z,1007.12
2018-07-26T10:13:09.532Z,1007.13
2018-07-26T10:14:09.349Z,1007.15
2018-07-26T10:15:09.393Z,1007.1
2018-07-26T10:16:09.325Z,1007.13
2018-07-26T10:17:09.325Z,1007.14
2018-07-26T10:18:09.322Z,1007.11
2018-07-26T10:19:09.328Z,1007.07
2018-07-26T10:20:09.391Z,1007.09
2018-07-26T10:21:09.319Z,1007.1
2018-07-26T10:22:09.319Z,1007.13
2018-07-26T10:23:09.314Z,1007.09
2018-07-26T10:24:09.316Z,1007.17
2018-07-26T10:25:09.312Z,1007.18
2018-07-26T10:26:09.312Z,1007.1
2018-07-26T10:27:09.312Z,1007.22
2018-07-26T10:28:09.313Z,1007.22
2018-07-26T10:29:09.309Z,1007.31
2018-07-26T10:30:09.306Z,1007.39
2018-07-26T10:31:09.305Z,1007.47
2018-07-26T10:32:09.306Z,1007.49
2018-07-26T10:33:09.306Z,1007.42
2018-07-26T10:34:09.304Z,1007.49
2018-07-26T10:35:09.303Z,1007.45
2018-07-26T10:36:09.306Z,1007.49
2018-07-26T10:37:09.307Z,1007.5
2018-07-26T10:38:09.309Z,1007.5
2018-07-26T10:39:09.310Z,1007.57
2018-07-26T10:40:09.312Z,1007.54
2018-07-26T10:41:09.315Z,1007.5
2018-07-26T10:42:09.318Z,1007.48
2018-07-26T10:43:09.322Z,1007.5
2018-07-26T10:44:09.327Z,1007.43
2018-07-26T10:45:09.329Z,1007.44
2018-07-26T10:46:09.338Z,1007.5
2018-07-26T10:47:09.339Z,1007.52
2018-07-26T10:48:09.345Z,1007.44
2018-07-26T10:49:09.352Z,1007.47
2018-07-26T10:50:09.355Z,1007.44
2018-07-26T10:51:09.365Z,1007.38
2018-07-26T10:52:09.368Z,1007.32
2018-07-26T10:53:09.373Z,1007.28
2018-07-26T10:54:09.380Z,1007.24
2018-07-26T10:55:09.388Z,1007.2
2018-07-26T10:56:09.394Z,1007.19
2018-07-26T10:57:09.404Z,1007.18
2018-07-26T10:58:09.406Z,1007.21
2018-07-26T10:59:09.417Z,1007.17
2018-07-26T11:00:09.428Z,1007.12
2018-07-26T11:01:09.431Z,1007.12
2018-07-26T11:02:09.437Z,1007.08
2018-07-26T11:03:09.446Z,1007.06
2018-07-26T11:04:09.453Z,1007.07
2018-07-26T11:05:09.461Z,1007.1
2018-07-26T11:06:09.476Z,1007.06
2018-07-26T11:07:09.479Z,1007.06
2018-07-26T11:08:09.487Z,1007.04
2018-07-26T11:09:09.496Z,1007.02
2018-07-26T11:10:09.515Z,1007.01
2018-07-26T11:11:09.513Z,1007.08
2018-07-26T11:12:09.520Z,1007.08
2018-07-26T11:13:09.532Z,1007.02
2018-07-26T11:14:09.549Z,1007.06
2018-07-26T11:15:09.629Z,1007.02
2018-07-26T11:16:09.558Z,1007.03
2018-07-26T11:17:09.567Z,1007.01
2018-07-26T11:18:09.576Z,1007.02
2018-07-26T11:19:09.588Z,1007.06
2018-07-26T11:20:09.596Z,1006.99
2018-07-26T11:21:09.604Z,1006.96
2018-07-26T11:22:09.619Z,1007.01
2018-07-26T11:23:09.625Z,1007.03
2018-07-26T11:24:09.672Z,1007.04
2018-07-26T11:25:09.644Z,1007.01
2018-07-26T11:26:09.652Z,1006.99
2018-07-26T11:27:09.731Z,1007
2018-07-26T11:28:09.674Z,1007.03
2018-07-26T11:29:09.682Z,1006.97
2018-07-26T11:30:09.694Z,1007.01
2018-07-26T11:31:09.704Z,1006.94
2018-07-26T11:32:09.714Z,1006.94
2018-07-26T11:33:09.728Z,1006.93
2018-07-26T11:34:09.733Z,1006.96
2018-07-26T11:35:09.744Z,1006.9
2018-07-26T11:36:09.755Z,1006.9
2018-07-26T11:37:09.777Z,1006.92
2018-07-26T11:38:09.775Z,1006.9
2018-07-26T11:39:09.786Z,1006.86
2018-07-26T11:40:09.799Z,1006.86
2018-07-26T11:41:09.806Z,1006.86
2018-07-26T11:42:09.819Z,1006.87
2018-07-26T11:43:09.828Z,1006.86
2018-07-26T11:44:09.840Z,1006.91
2018-07-26T11:45:09.853Z,1006.87
2018-07-26T11:46:09.865Z,1006.89
2018-07-26T11:47:09.874Z,1006.87
2018-07-26T11:48:09.887Z,1006.86
2018-07-26T11:49:09.898Z,1006.82
2018-07-26T11:50:09.975Z,1006.79
2018-07-26T11:51:09.919Z,1006.82
2018-07-26T11:52:09.930Z,1006.81
2018-07-26T11:53:09.942Z,1006.81
2018-07-26T11:54:09.952Z,1006.81
2018-07-26T11:55:09.963Z,1006.82
2018-07-26T11:56:09.975Z,1006.78
2018-07-26T11:57:09.989Z,1006.75
2018-07-26T11:58:10.001Z,1006.74
2018-07-26T11:59:10.059Z,1006.72
2018-07-26T12:00:10.024Z,1006.73
2018-07-26T12:01:10.036Z,1006.73
2018-07-26T12:02:10.046Z,1006.71
2018-07-26T12:03:10.056Z,1006.69
2018-07-26T12:04:10.068Z,1006.77
2018-07-26T12:05:10.082Z,1006.75
2018-07-26T12:06:10.093Z,1006.74
2018-07-26T12:07:10.102Z,1006.75
2018-07-26T12:08:10.124Z,1006.66